sensor_id;sensor_type;location;lat;lon;timestamp;P1;durP1;ratioP1;P2;durP2;ratioP2
1885;SDS011;943;51.568;6.998;2023-08-17T00:01:10;3.70;;;1.73;;
1885;SDS011;943;51.568;6.998;2023-08-17T00:03:42;2.53;;;1.20;;
1885;SDS011;943;51.568;6.998;2023-08-17T00:06:10;2.20;;;0.90;;
1885;SDS011;943;51.568;6.998;2023-08-17T00:08:38;4.20;;;1.83;;
1885;SDS011;943;51.568;6.998;2023-08-17T00:11:06;4.47;;;1.60;;
1885;SDS011;943;51.568;6.998;2023-08-17T00:13:35;4.43;;;1.83;;
1885;SDS011;943;51.568;6.998;2023-08-17T00:16:03;10.00;;;1.83;;
1885;SDS011;943;51.568;6.998;2023-08-17T00:18:31;3.00;;;1.40;;
1885;SDS011;943;51.568;6.998;2023-08-17T00:21:00;3.27;;;1.90;;
1885;SDS011;943;51.568;6.998;2023-08-17T00:23:30;5.40;;;2.97;;
1885;SDS011;943;51.568;6.998;2023-08-17T00:26:02;2.70;;;1.53;;
1885;SDS011;943;51.568;6.998;2023-08-17T00:28:30;3.47;;;1.60;;
1885;SDS011;943;51.568;6.998;2023-08-17T00:30:59;6.00;;;2.30;;
1885;SDS011;943;51.568;6.998;2023-08-17T00:33:29;3.30;;;1.63;;
1885;SDS011;943;51.568;6.998;2023-08-17T00:35:57;3.20;;;1.50;;
1885;SDS011;943;51.568;6.998;2023-08-17T00:38:25;2.33;;;1.00;;
1885;SDS011;943;51.568;6.998;2023-08-17T00:40:54;5.37;;;2.60;;
1885;SDS011;943;51.568;6.998;2023-08-17T00:43:24;3.50;;;1.80;;
1885;SDS011;943;51.568;6.998;2023-08-17T00:45:54;3.97;;;1.63;;
1885;SDS011;943;51.568;6.998;2023-08-17T00:48:23;2.53;;;1.30;;
1885;SDS011;943;51.568;6.998;2023-08-17T00:50:55;5.03;;;2.33;;
1885;SDS011;943;51.568;6.998;2023-08-17T00:53:26;3.57;;;1.93;;
1885;SDS011;943;51.568;6.998;2023-08-17T00:55:59;4.57;;;1.83;;
1885;SDS011;943;51.568;6.998;2023-08-17T00:58:30;2.90;;;1.43;;
1885;SDS011;943;51.568;6.998;2023-08-17T01:01:00;2.77;;;1.50;;
1885;SDS011;943;51.568;6.998;2023-08-17T01:03:29;4.90;;;2.13;;
1885;SDS011;943;51.568;6.998;2023-08-17T01:05:58;4.33;;;2.40;;
1885;SDS011;943;51.568;6.998;2023-08-17T01:08:29;2.53;;;1.53;;
1885;SDS011;943;51.568;6.998;2023-08-17T01:11:02;4.03;;;1.87;;
1885;SDS011;943;51.568;6.998;2023-08-17T01:16:56;3.13;;;1.47;;
1885;SDS011;943;51.568;6.998;2023-08-17T01:19:55;2.53;;;1.70;;
1885;SDS011;943;51.568;6.998;2023-08-17T01:22:26;20.37;;;2.83;;
1885;SDS011;943;51.568;6.998;2023-08-17T01:25:00;3.63;;;1.80;;
1885;SDS011;943;51.568;6.998;2023-08-17T01:27:34;3.60;;;1.80;;
1885;SDS011;943;51.568;6.998;2023-08-17T01:30:13;3.43;;;1.80;;
1885;SDS011;943;51.568;6.998;2023-08-17T01:35:48;3.20;;;1.67;;
1885;SDS011;943;51.568;6.998;2023-08-17T01:38:44;2.33;;;1.00;;
1885;SDS011;943;51.568;6.998;2023-08-17T01:41:18;3.07;;;1.90;;
1885;SDS011;943;51.568;6.998;2023-08-17T01:43:52;5.73;;;3.50;;
1885;SDS011;943;51.568;6.998;2023-08-17T01:46:25;5.17;;;1.83;;
1885;SDS011;943;51.568;6.998;2023-08-17T01:48:59;3.40;;;1.50;;
1885;SDS011;943;51.568;6.998;2023-08-17T01:51:29;2.30;;;1.10;;
1885;SDS011;943;51.568;6.998;2023-08-17T01:53:57;4.80;;;2.13;;
1885;SDS011;943;51.568;6.998;2023-08-17T01:56:26;6.00;;;1.50;;
1885;SDS011;943;51.568;6.998;2023-08-17T01:58:53;4.60;;;2.67;;
1885;SDS011;943;51.568;6.998;2023-08-17T02:01:21;4.43;;;2.13;;
1885;SDS011;943;51.568;6.998;2023-08-17T02:03:49;2.50;;;1.10;;
1885;SDS011;943;51.568;6.998;2023-08-17T02:06:17;5.13;;;2.33;;
1885;SDS011;943;51.568;6.998;2023-08-17T02:08:45;2.67;;;1.80;;
1885;SDS011;943;51.568;6.998;2023-08-17T02:11:13;6.63;;;2.27;;
1885;SDS011;943;51.568;6.998;2023-08-17T02:13:41;3.87;;;2.07;;
1885;SDS011;943;51.568;6.998;2023-08-17T02:16:09;2.73;;;1.57;;
1885;SDS011;943;51.568;6.998;2023-08-17T02:18:37;5.80;;;2.67;;
1885;SDS011;943;51.568;6.998;2023-08-17T02:21:06;4.30;;;2.37;;
1885;SDS011;943;51.568;6.998;2023-08-17T02:23:34;2.77;;;1.57;;
1885;SDS011;943;51.568;6.998;2023-08-17T02:26:02;2.30;;;1.10;;
1885;SDS011;943;51.568;6.998;2023-08-17T02:28:30;3.40;;;2.77;;
1885;SDS011;943;51.568;6.998;2023-08-17T02:30:58;5.00;;;1.70;;
1885;SDS011;943;51.568;6.998;2023-08-17T02:33:27;3.77;;;1.50;;
1885;SDS011;943;51.568;6.998;2023-08-17T02:35:55;2.60;;;1.50;;
1885;SDS011;943;51.568;6.998;2023-08-17T02:38:23;4.67;;;2.67;;
1885;SDS011;943;51.568;6.998;2023-08-17T02:40:51;3.80;;;1.53;;
1885;SDS011;943;51.568;6.998;2023-08-17T02:43:19;3.93;;;1.70;;
1885;SDS011;943;51.568;6.998;2023-08-17T02:45:47;4.67;;;1.63;;
1885;SDS011;943;51.568;6.998;2023-08-17T02:48:14;3.07;;;2.10;;
1885;SDS011;943;51.568;6.998;2023-08-17T02:50:42;3.37;;;1.80;;
1885;SDS011;943;51.568;6.998;2023-08-17T02:53:11;3.67;;;2.50;;
1885;SDS011;943;51.568;6.998;2023-08-17T02:55:39;3.50;;;2.17;;
1885;SDS011;943;51.568;6.998;2023-08-17T02:58:07;3.93;;;2.60;;
1885;SDS011;943;51.568;6.998;2023-08-17T03:00:35;4.43;;;2.20;;
1885;SDS011;943;51.568;6.998;2023-08-17T03:03:03;4.47;;;2.70;;
1885;SDS011;943;51.568;6.998;2023-08-17T03:05:32;3.90;;;1.80;;
1885;SDS011;943;51.568;6.998;2023-08-17T03:08:01;5.20;;;2.20;;
1885;SDS011;943;51.568;6.998;2023-08-17T03:10:30;2.60;;;1.43;;
1885;SDS011;943;51.568;6.998;2023-08-17T03:12:58;3.33;;;1.80;;
1885;SDS011;943;51.568;6.998;2023-08-17T03:15:26;5.27;;;2.57;;
1885;SDS011;943;51.568;6.998;2023-08-17T03:17:54;2.30;;;1.03;;
1885;SDS011;943;51.568;6.998;2023-08-17T03:20:23;4.50;;;2.43;;
1885;SDS011;943;51.568;6.998;2023-08-17T03:22:50;2.60;;;1.30;;
1885;SDS011;943;51.568;6.998;2023-08-17T03:25:18;3.70;;;2.07;;
1885;SDS011;943;51.568;6.998;2023-08-17T03:27:47;2.63;;;1.90;;
1885;SDS011;943;51.568;6.998;2023-08-17T03:30:15;4.23;;;1.60;;
1885;SDS011;943;51.568;6.998;2023-08-17T03:32:44;2.97;;;1.60;;
1885;SDS011;943;51.568;6.998;2023-08-17T03:35:12;6.13;;;1.37;;
1885;SDS011;943;51.568;6.998;2023-08-17T03:37:40;6.80;;;2.27;;
1885;SDS011;943;51.568;6.998;2023-08-17T03:40:09;2.80;;;1.53;;
1885;SDS011;943;51.568;6.998;2023-08-17T03:42:38;3.23;;;1.43;;
1885;SDS011;943;51.568;6.998;2023-08-17T03:45:06;3.10;;;1.63;;
1885;SDS011;943;51.568;6.998;2023-08-17T03:47:35;3.90;;;1.80;;
1885;SDS011;943;51.568;6.998;2023-08-17T03:50:03;3.90;;;1.40;;
1885;SDS011;943;51.568;6.998;2023-08-17T03:52:32;4.73;;;1.57;;
1885;SDS011;943;51.568;6.998;2023-08-17T03:55:00;4.07;;;1.80;;
1885;SDS011;943;51.568;6.998;2023-08-17T03:57:29;4.23;;;1.97;;
1885;SDS011;943;51.568;6.998;2023-08-17T03:59:59;2.80;;;1.83;;
1885;SDS011;943;51.568;6.998;2023-08-17T04:02:28;3.50;;;1.53;;
1885;SDS011;943;51.568;6.998;2023-08-17T04:04:55;4.00;;;2.10;;
1885;SDS011;943;51.568;6.998;2023-08-17T04:07:24;2.30;;;1.30;;
1885;SDS011;943;51.568;6.998;2023-08-17T04:09:55;3.60;;;2.83;;
1885;SDS011;943;51.568;6.998;2023-08-17T04:12:26;3.50;;;1.80;;
1885;SDS011;943;51.568;6.998;2023-08-17T04:14:53;3.40;;;1.40;;
1885;SDS011;943;51.568;6.998;2023-08-17T04:17:21;16.03;;;2.93;;
1885;SDS011;943;51.568;6.998;2023-08-17T04:19:50;2.73;;;1.53;;
1885;SDS011;943;51.568;6.998;2023-08-17T04:22:19;2.70;;;1.53;;
1885;SDS011;943;51.568;6.998;2023-08-17T04:24:47;3.07;;;1.73;;
1885;SDS011;943;51.568;6.998;2023-08-17T04:27:16;2.87;;;1.30;;
1885;SDS011;943;51.568;6.998;2023-08-17T04:29:45;3.43;;;1.90;;
1885;SDS011;943;51.568;6.998;2023-08-17T04:32:14;4.50;;;2.10;;
1885;SDS011;943;51.568;6.998;2023-08-17T04:34:43;3.73;;;1.77;;
1885;SDS011;943;51.568;6.998;2023-08-17T04:37:14;3.40;;;1.60;;
1885;SDS011;943;51.568;6.998;2023-08-17T04:39:42;5.33;;;3.07;;
1885;SDS011;943;51.568;6.998;2023-08-17T04:42:17;5.43;;;2.37;;
1885;SDS011;943;51.568;6.998;2023-08-17T04:44:47;4.33;;;1.80;;
1885;SDS011;943;51.568;6.998;2023-08-17T04:47:15;3.50;;;2.27;;
1885;SDS011;943;51.568;6.998;2023-08-17T04:49:43;4.83;;;2.07;;
1885;SDS011;943;51.568;6.998;2023-08-17T04:52:11;3.73;;;2.50;;
1885;SDS011;943;51.568;6.998;2023-08-17T04:54:39;4.73;;;2.03;;
1885;SDS011;943;51.568;6.998;2023-08-17T04:57:07;4.23;;;2.83;;
1885;SDS011;943;51.568;6.998;2023-08-17T04:59:35;3.00;;;1.30;;
1885;SDS011;943;51.568;6.998;2023-08-17T05:02:04;2.70;;;1.10;;
1885;SDS011;943;51.568;6.998;2023-08-17T05:04:32;3.37;;;1.73;;
1885;SDS011;943;51.568;6.998;2023-08-17T05:07:00;3.63;;;1.80;;
1885;SDS011;943;51.568;6.998;2023-08-17T05:09:29;9.00;;;2.40;;
1885;SDS011;943;51.568;6.998;2023-08-17T05:11:58;3.57;;;2.60;;
1885;SDS011;943;51.568;6.998;2023-08-17T05:14:26;2.67;;;1.37;;
1885;SDS011;943;51.568;6.998;2023-08-17T05:16:54;2.47;;;1.63;;
1885;SDS011;943;51.568;6.998;2023-08-17T05:19:23;4.07;;;1.60;;
1885;SDS011;943;51.568;6.998;2023-08-17T05:21:53;4.57;;;2.20;;
1885;SDS011;943;51.568;6.998;2023-08-17T05:24:21;4.17;;;1.20;;
1885;SDS011;943;51.568;6.998;2023-08-17T05:26:50;2.97;;;2.20;;
1885;SDS011;943;51.568;6.998;2023-08-17T05:29:18;2.83;;;1.40;;
1885;SDS011;943;51.568;6.998;2023-08-17T05:31:46;3.80;;;1.90;;
1885;SDS011;943;51.568;6.998;2023-08-17T05:34:14;4.50;;;1.97;;
1885;SDS011;943;51.568;6.998;2023-08-17T05:36:42;4.00;;;2.17;;
1885;SDS011;943;51.568;6.998;2023-08-17T05:39:12;6.07;;;3.37;;
1885;SDS011;943;51.568;6.998;2023-08-17T05:41:40;3.13;;;1.50;;
1885;SDS011;943;51.568;6.998;2023-08-17T05:44:08;5.77;;;2.00;;
1885;SDS011;943;51.568;6.998;2023-08-17T05:46:36;4.30;;;1.70;;
1885;SDS011;943;51.568;6.998;2023-08-17T05:49:07;4.63;;;2.27;;
1885;SDS011;943;51.568;6.998;2023-08-17T05:51:35;3.60;;;2.03;;
1885;SDS011;943;51.568;6.998;2023-08-17T05:54:03;2.90;;;1.23;;
1885;SDS011;943;51.568;6.998;2023-08-17T05:56:32;3.33;;;1.27;;
1885;SDS011;943;51.568;6.998;2023-08-17T05:59:00;4.93;;;3.33;;
1885;SDS011;943;51.568;6.998;2023-08-17T06:01:28;4.80;;;1.37;;
1885;SDS011;943;51.568;6.998;2023-08-17T06:03:57;2.87;;;1.10;;
1885;SDS011;943;51.568;6.998;2023-08-17T06:06:25;2.90;;;1.23;;
1885;SDS011;943;51.568;6.998;2023-08-17T06:08:53;3.53;;;2.10;;
1885;SDS011;943;51.568;6.998;2023-08-17T06:11:22;3.93;;;1.63;;
1885;SDS011;943;51.568;6.998;2023-08-17T06:13:50;4.87;;;3.27;;
1885;SDS011;943;51.568;6.998;2023-08-17T06:16:18;3.83;;;1.97;;
1885;SDS011;943;51.568;6.998;2023-08-17T06:18:46;4.90;;;2.00;;
1885;SDS011;943;51.568;6.998;2023-08-17T06:21:16;3.10;;;1.20;;
1885;SDS011;943;51.568;6.998;2023-08-17T06:23:44;3.77;;;1.60;;
1885;SDS011;943;51.568;6.998;2023-08-17T06:26:12;3.23;;;1.70;;
1885;SDS011;943;51.568;6.998;2023-08-17T06:28:40;3.47;;;2.03;;
1885;SDS011;943;51.568;6.998;2023-08-17T06:31:08;2.60;;;1.63;;
1885;SDS011;943;51.568;6.998;2023-08-17T06:33:36;5.87;;;2.00;;
1885;SDS011;943;51.568;6.998;2023-08-17T06:36:04;2.57;;;1.77;;
1885;SDS011;943;51.568;6.998;2023-08-17T06:38:32;6.20;;;1.93;;
1885;SDS011;943;51.568;6.998;2023-08-17T06:41:00;4.30;;;2.10;;
1885;SDS011;943;51.568;6.998;2023-08-17T06:43:28;4.23;;;1.90;;
1885;SDS011;943;51.568;6.998;2023-08-17T06:45:56;5.10;;;2.20;;
1885;SDS011;943;51.568;6.998;2023-08-17T06:48:27;4.23;;;2.10;;
1885;SDS011;943;51.568;6.998;2023-08-17T06:50:55;3.40;;;1.77;;
1885;SDS011;943;51.568;6.998;2023-08-17T06:53:24;3.93;;;1.90;;
1885;SDS011;943;51.568;6.998;2023-08-17T06:55:52;3.90;;;2.10;;
1885;SDS011;943;51.568;6.998;2023-08-17T06:58:20;4.27;;;2.40;;
1885;SDS011;943;51.568;6.998;2023-08-17T07:00:48;3.53;;;2.40;;
1885;SDS011;943;51.568;6.998;2023-08-17T07:03:15;3.20;;;1.63;;
1885;SDS011;943;51.568;6.998;2023-08-17T07:05:45;4.37;;;2.53;;
1885;SDS011;943;51.568;6.998;2023-08-17T07:08:13;4.70;;;2.27;;
1885;SDS011;943;51.568;6.998;2023-08-17T07:10:41;3.30;;;2.20;;
1885;SDS011;943;51.568;6.998;2023-08-17T07:13:09;4.30;;;2.47;;
1885;SDS011;943;51.568;6.998;2023-08-17T07:15:37;4.77;;;2.37;;
1885;SDS011;943;51.568;6.998;2023-08-17T07:18:04;9.03;;;1.83;;
1885;SDS011;943;51.568;6.998;2023-08-17T07:20:33;3.63;;;2.47;;
1885;SDS011;943;51.568;6.998;2023-08-17T07:23:01;5.10;;;2.90;;
1885;SDS011;943;51.568;6.998;2023-08-17T07:25:30;6.77;;;2.73;;
1885;SDS011;943;51.568;6.998;2023-08-17T07:27:59;3.40;;;1.70;;
1885;SDS011;943;51.568;6.998;2023-08-17T07:30:27;5.90;;;2.83;;
1885;SDS011;943;51.568;6.998;2023-08-17T07:32:55;8.70;;;2.23;;
1885;SDS011;943;51.568;6.998;2023-08-17T07:35:23;3.87;;;3.17;;
1885;SDS011;943;51.568;6.998;2023-08-17T07:37:51;5.17;;;2.80;;
1885;SDS011;943;51.568;6.998;2023-08-17T07:40:34;3.30;;;2.00;;
1885;SDS011;943;51.568;6.998;2023-08-17T07:43:02;7.83;;;4.17;;
1885;SDS011;943;51.568;6.998;2023-08-17T07:45:31;6.53;;;2.30;;
1885;SDS011;943;51.568;6.998;2023-08-17T07:47:59;4.57;;;2.10;;
1885;SDS011;943;51.568;6.998;2023-08-17T07:50:27;3.77;;;2.47;;
1885;SDS011;943;51.568;6.998;2023-08-17T07:52:55;4.77;;;2.80;;
1885;SDS011;943;51.568;6.998;2023-08-17T07:55:23;4.73;;;2.67;;
1885;SDS011;943;51.568;6.998;2023-08-17T07:57:53;9.23;;;3.13;;
1885;SDS011;943;51.568;6.998;2023-08-17T08:00:21;5.70;;;3.27;;
1885;SDS011;943;51.568;6.998;2023-08-17T08:02:50;3.80;;;2.50;;
1885;SDS011;943;51.568;6.998;2023-08-17T08:05:17;5.00;;;2.27;;
1885;SDS011;943;51.568;6.998;2023-08-17T08:07:46;5.70;;;3.00;;
1885;SDS011;943;51.568;6.998;2023-08-17T08:10:14;4.67;;;2.43;;
1885;SDS011;943;51.568;6.998;2023-08-17T08:12:42;3.37;;;2.17;;
1885;SDS011;943;51.568;6.998;2023-08-17T08:15:10;4.53;;;2.83;;
1885;SDS011;943;51.568;6.998;2023-08-17T08:17:37;4.83;;;3.30;;
1885;SDS011;943;51.568;6.998;2023-08-17T08:20:06;6.40;;;4.77;;
1885;SDS011;943;51.568;6.998;2023-08-17T08:22:35;5.60;;;4.50;;
1885;SDS011;943;51.568;6.998;2023-08-17T08:25:03;6.67;;;2.97;;
1885;SDS011;943;51.568;6.998;2023-08-17T08:27:32;3.17;;;2.03;;
1885;SDS011;943;51.568;6.998;2023-08-17T08:30:00;7.93;;;2.23;;
1885;SDS011;943;51.568;6.998;2023-08-17T08:32:28;6.13;;;3.00;;
1885;SDS011;943;51.568;6.998;2023-08-17T08:34:56;6.73;;;3.77;;
1885;SDS011;943;51.568;6.998;2023-08-17T08:37:24;5.03;;;2.97;;
1885;SDS011;943;51.568;6.998;2023-08-17T08:39:53;6.73;;;2.63;;
1885;SDS011;943;51.568;6.998;2023-08-17T08:42:23;6.27;;;4.37;;
1885;SDS011;943;51.568;6.998;2023-08-17T08:44:52;3.70;;;2.90;;
1885;SDS011;943;51.568;6.998;2023-08-17T08:47:20;4.63;;;2.80;;
1885;SDS011;943;51.568;6.998;2023-08-17T08:49:59;4.20;;;2.57;;
1885;SDS011;943;51.568;6.998;2023-08-17T08:52:33;4.70;;;2.93;;
1885;SDS011;943;51.568;6.998;2023-08-17T08:55:26;5.40;;;2.77;;
1885;SDS011;943;51.568;6.998;2023-08-17T08:58:10;4.57;;;2.60;;
1885;SDS011;943;51.568;6.998;2023-08-17T09:00:45;4.23;;;2.90;;
1885;SDS011;943;51.568;6.998;2023-08-17T09:03:15;3.60;;;1.67;;
1885;SDS011;943;51.568;6.998;2023-08-17T09:05:47;4.23;;;2.30;;
1885;SDS011;943;51.568;6.998;2023-08-17T09:08:22;7.83;;;4.10;;
1885;SDS011;943;51.568;6.998;2023-08-17T09:10:57;4.50;;;2.37;;
1885;SDS011;943;51.568;6.998;2023-08-17T09:13:25;3.77;;;2.43;;
1885;SDS011;943;51.568;6.998;2023-08-17T09:15:53;5.90;;;2.73;;
1885;SDS011;943;51.568;6.998;2023-08-17T09:18:21;3.90;;;2.60;;
1885;SDS011;943;51.568;6.998;2023-08-17T09:20:51;6.30;;;3.13;;
1885;SDS011;943;51.568;6.998;2023-08-17T09:23:20;3.60;;;2.50;;
1885;SDS011;943;51.568;6.998;2023-08-17T09:25:49;4.07;;;2.37;;
1885;SDS011;943;51.568;6.998;2023-08-17T09:28:31;5.53;;;3.47;;
1885;SDS011;943;51.568;6.998;2023-08-17T09:31:00;5.37;;;2.77;;
1885;SDS011;943;51.568;6.998;2023-08-17T09:33:32;4.53;;;2.73;;
1885;SDS011;943;51.568;6.998;2023-08-17T09:36:02;3.90;;;2.03;;
1885;SDS011;943;51.568;6.998;2023-08-17T09:38:30;8.80;;;3.47;;
1885;SDS011;943;51.568;6.998;2023-08-17T09:40:58;4.73;;;1.90;;
1885;SDS011;943;51.568;6.998;2023-08-17T09:43:26;4.40;;;2.17;;
1885;SDS011;943;51.568;6.998;2023-08-17T09:45:57;4.60;;;2.63;;
1885;SDS011;943;51.568;6.998;2023-08-17T09:48:26;5.40;;;2.67;;
1885;SDS011;943;51.568;6.998;2023-08-17T09:50:57;3.90;;;2.93;;
1885;SDS011;943;51.568;6.998;2023-08-17T09:53:28;6.17;;;2.40;;
1885;SDS011;943;51.568;6.998;2023-08-17T09:56:03;5.47;;;2.97;;
1885;SDS011;943;51.568;6.998;2023-08-17T09:58:43;3.40;;;2.40;;
1885;SDS011;943;51.568;6.998;2023-08-17T10:01:11;3.83;;;2.57;;
1885;SDS011;943;51.568;6.998;2023-08-17T10:03:42;4.87;;;2.30;;
1885;SDS011;943;51.568;6.998;2023-08-17T10:06:13;10.53;;;5.63;;
1885;SDS011;943;51.568;6.998;2023-08-17T10:08:54;7.00;;;3.83;;
1885;SDS011;943;51.568;6.998;2023-08-17T10:11:26;4.97;;;2.50;;
1885;SDS011;943;51.568;6.998;2023-08-17T10:14:06;7.13;;;4.57;;
1885;SDS011;943;51.568;6.998;2023-08-17T10:16:59;4.20;;;3.20;;
1885;SDS011;943;51.568;6.998;2023-08-17T10:19:43;6.73;;;3.17;;
1885;SDS011;943;51.568;6.998;2023-08-17T10:25:30;4.27;;;3.27;;
1885;SDS011;943;51.568;6.998;2023-08-17T10:28:00;6.47;;;2.90;;
1885;SDS011;943;51.568;6.998;2023-08-17T10:30:31;5.20;;;3.30;;
1885;SDS011;943;51.568;6.998;2023-08-17T10:33:02;17.53;;;4.30;;
1885;SDS011;943;51.568;6.998;2023-08-17T10:35:37;5.70;;;2.57;;
1885;SDS011;943;51.568;6.998;2023-08-17T10:38:07;5.47;;;3.23;;
1885;SDS011;943;51.568;6.998;2023-08-17T10:40:40;7.47;;;4.60;;
1885;SDS011;943;51.568;6.998;2023-08-17T10:43:10;8.50;;;4.07;;
1885;SDS011;943;51.568;6.998;2023-08-17T10:45:41;4.07;;;2.57;;
1885;SDS011;943;51.568;6.998;2023-08-17T10:50:44;4.67;;;2.87;;
1885;SDS011;943;51.568;6.998;2023-08-17T10:53:34;8.57;;;4.37;;
1885;SDS011;943;51.568;6.998;2023-08-17T10:56:12;5.20;;;3.47;;
1885;SDS011;943;51.568;6.998;2023-08-17T10:58:44;3.70;;;2.80;;
1885;SDS011;943;51.568;6.998;2023-08-17T11:01:11;6.93;;;3.63;;
1885;SDS011;943;51.568;6.998;2023-08-17T11:03:47;11.33;;;3.27;;
1885;SDS011;943;51.568;6.998;2023-08-17T11:06:45;7.13;;;3.37;;
1885;SDS011;943;51.568;6.998;2023-08-17T11:09:27;4.90;;;3.23;;
1885;SDS011;943;51.568;6.998;2023-08-17T11:11:57;7.10;;;3.20;;
1885;SDS011;943;51.568;6.998;2023-08-17T11:14:32;6.10;;;3.73;;
1885;SDS011;943;51.568;6.998;2023-08-17T11:17:02;7.97;;;4.67;;
1885;SDS011;943;51.568;6.998;2023-08-17T11:19:32;6.67;;;4.93;;
1885;SDS011;943;51.568;6.998;2023-08-17T11:22:00;6.90;;;4.50;;
1885;SDS011;943;51.568;6.998;2023-08-17T11:24:28;6.83;;;5.60;;
1885;SDS011;943;51.568;6.998;2023-08-17T11:26:56;5.70;;;3.27;;
1885;SDS011;943;51.568;6.998;2023-08-17T11:29:25;7.20;;;4.13;;
1885;SDS011;943;51.568;6.998;2023-08-17T11:31:58;8.37;;;5.50;;
1885;SDS011;943;51.568;6.998;2023-08-17T11:34:26;6.43;;;4.73;;
1885;SDS011;943;51.568;6.998;2023-08-17T11:36:57;4.97;;;2.70;;
1885;SDS011;943;51.568;6.998;2023-08-17T11:39:36;6.70;;;3.80;;
1885;SDS011;943;51.568;6.998;2023-08-17T11:42:04;7.63;;;3.40;;
1885;SDS011;943;51.568;6.998;2023-08-17T11:44:34;6.87;;;3.87;;
1885;SDS011;943;51.568;6.998;2023-08-17T11:47:04;7.00;;;5.03;;
1885;SDS011;943;51.568;6.998;2023-08-17T11:49:33;6.40;;;4.30;;
1885;SDS011;943;51.568;6.998;2023-08-17T11:52:04;8.00;;;4.33;;
1885;SDS011;943;51.568;6.998;2023-08-17T11:54:40;8.83;;;5.90;;
1885;SDS011;943;51.568;6.998;2023-08-17T11:57:09;10.13;;;5.40;;
1885;SDS011;943;51.568;6.998;2023-08-17T11:59:39;9.17;;;4.20;;
1885;SDS011;943;51.568;6.998;2023-08-17T12:02:07;11.53;;;5.50;;
1885;SDS011;943;51.568;6.998;2023-08-17T12:04:36;5.50;;;4.13;;
1885;SDS011;943;51.568;6.998;2023-08-17T12:07:04;9.37;;;5.37;;
1885;SDS011;943;51.568;6.998;2023-08-17T12:09:33;8.03;;;4.70;;
1885;SDS011;943;51.568;6.998;2023-08-17T12:12:01;6.93;;;4.53;;
1885;SDS011;943;51.568;6.998;2023-08-17T12:14:30;7.23;;;4.87;;
1885;SDS011;943;51.568;6.998;2023-08-17T12:16:58;8.20;;;5.50;;
1885;SDS011;943;51.568;6.998;2023-08-17T12:19:26;25.17;;;5.20;;
1885;SDS011;943;51.568;6.998;2023-08-17T12:21:56;11.37;;;3.80;;
1885;SDS011;943;51.568;6.998;2023-08-17T12:24:25;6.13;;;4.73;;
1885;SDS011;943;51.568;6.998;2023-08-17T12:26:56;9.30;;;4.70;;
1885;SDS011;943;51.568;6.998;2023-08-17T12:29:25;8.30;;;5.83;;
1885;SDS011;943;51.568;6.998;2023-08-17T12:31:56;5.43;;;3.40;;
1885;SDS011;943;51.568;6.998;2023-08-17T12:34:27;12.83;;;5.97;;
1885;SDS011;943;51.568;6.998;2023-08-17T12:36:55;9.63;;;5.53;;
1885;SDS011;943;51.568;6.998;2023-08-17T12:39:23;6.10;;;4.20;;
1885;SDS011;943;51.568;6.998;2023-08-17T12:41:52;7.20;;;4.17;;
1885;SDS011;943;51.568;6.998;2023-08-17T12:44:20;7.20;;;4.63;;
1885;SDS011;943;51.568;6.998;2023-08-17T12:46:47;15.00;;;6.17;;
1885;SDS011;943;51.568;6.998;2023-08-17T12:49:15;5.60;;;3.37;;
1885;SDS011;943;51.568;6.998;2023-08-17T12:51:43;7.97;;;6.63;;
1885;SDS011;943;51.568;6.998;2023-08-17T12:54:12;7.67;;;3.77;;
1885;SDS011;943;51.568;6.998;2023-08-17T12:56:40;6.43;;;4.83;;
1885;SDS011;943;51.568;6.998;2023-08-17T12:59:08;5.87;;;4.10;;
1885;SDS011;943;51.568;6.998;2023-08-17T13:01:36;7.40;;;4.30;;
1885;SDS011;943;51.568;6.998;2023-08-17T13:04:06;6.10;;;3.90;;
1885;SDS011;943;51.568;6.998;2023-08-17T13:06:34;9.50;;;5.43;;
1885;SDS011;943;51.568;6.998;2023-08-17T13:09:15;15.30;;;5.80;;
1885;SDS011;943;51.568;6.998;2023-08-17T13:11:47;7.63;;;4.63;;
1885;SDS011;943;51.568;6.998;2023-08-17T13:14:15;6.90;;;4.50;;
1885;SDS011;943;51.568;6.998;2023-08-17T13:16:43;8.00;;;4.40;;
1885;SDS011;943;51.568;6.998;2023-08-17T13:19:11;5.20;;;3.77;;
1885;SDS011;943;51.568;6.998;2023-08-17T13:21:39;5.40;;;3.50;;
1885;SDS011;943;51.568;6.998;2023-08-17T13:24:07;6.90;;;5.03;;
1885;SDS011;943;51.568;6.998;2023-08-17T13:26:35;6.23;;;3.37;;
1885;SDS011;943;51.568;6.998;2023-08-17T13:29:04;5.33;;;4.03;;
1885;SDS011;943;51.568;6.998;2023-08-17T13:31:32;5.70;;;4.30;;
1885;SDS011;943;51.568;6.998;2023-08-17T13:34:00;6.53;;;4.37;;
1885;SDS011;943;51.568;6.998;2023-08-17T13:36:29;6.47;;;3.60;;
1885;SDS011;943;51.568;6.998;2023-08-17T13:38:57;8.07;;;5.47;;
1885;SDS011;943;51.568;6.998;2023-08-17T13:41:25;7.17;;;4.77;;
1885;SDS011;943;51.568;6.998;2023-08-17T13:43:52;5.80;;;4.57;;
1885;SDS011;943;51.568;6.998;2023-08-17T13:46:25;4.67;;;3.20;;
1885;SDS011;943;51.568;6.998;2023-08-17T13:48:53;8.60;;;5.00;;
1885;SDS011;943;51.568;6.998;2023-08-17T13:51:21;7.97;;;5.47;;
1885;SDS011;943;51.568;6.998;2023-08-17T13:53:49;7.50;;;5.93;;
1885;SDS011;943;51.568;6.998;2023-08-17T13:56:18;10.03;;;5.30;;
1885;SDS011;943;51.568;6.998;2023-08-17T13:58:46;7.83;;;5.60;;
1885;SDS011;943;51.568;6.998;2023-08-17T14:01:14;8.07;;;4.53;;
1885;SDS011;943;51.568;6.998;2023-08-17T14:03:43;7.47;;;6.07;;
1885;SDS011;943;51.568;6.998;2023-08-17T14:06:11;6.77;;;4.33;;
1885;SDS011;943;51.568;6.998;2023-08-17T14:08:39;7.63;;;3.70;;
1885;SDS011;943;51.568;6.998;2023-08-17T14:11:07;10.40;;;5.77;;
1885;SDS011;943;51.568;6.998;2023-08-17T14:13:35;7.50;;;5.00;;
1885;SDS011;943;51.568;6.998;2023-08-17T14:16:04;7.13;;;5.10;;
1885;SDS011;943;51.568;6.998;2023-08-17T14:18:32;6.03;;;3.70;;
1885;SDS011;943;51.568;6.998;2023-08-17T14:21:00;7.43;;;3.57;;
1885;SDS011;943;51.568;6.998;2023-08-17T14:23:28;7.27;;;4.30;;
1885;SDS011;943;51.568;6.998;2023-08-17T14:25:56;7.37;;;4.10;;
1885;SDS011;943;51.568;6.998;2023-08-17T14:28:25;6.87;;;4.53;;
1885;SDS011;943;51.568;6.998;2023-08-17T14:30:53;11.50;;;6.00;;
1885;SDS011;943;51.568;6.998;2023-08-17T14:33:21;12.93;;;4.47;;
1885;SDS011;943;51.568;6.998;2023-08-17T14:35:49;6.53;;;4.70;;
1885;SDS011;943;51.568;6.998;2023-08-17T14:38:18;8.43;;;4.87;;
1885;SDS011;943;51.568;6.998;2023-08-17T14:40:46;9.03;;;6.77;;
1885;SDS011;943;51.568;6.998;2023-08-17T14:43:16;8.50;;;5.23;;
1885;SDS011;943;51.568;6.998;2023-08-17T14:45:50;7.20;;;4.90;;
1885;SDS011;943;51.568;6.998;2023-08-17T14:48:18;9.13;;;5.23;;
1885;SDS011;943;51.568;6.998;2023-08-17T14:50:50;5.70;;;4.37;;
1885;SDS011;943;51.568;6.998;2023-08-17T14:53:18;10.03;;;5.83;;
1885;SDS011;943;51.568;6.998;2023-08-17T14:55:46;5.13;;;4.00;;
1885;SDS011;943;51.568;6.998;2023-08-17T14:58:16;6.13;;;3.50;;
1885;SDS011;943;51.568;6.998;2023-08-17T15:00:45;7.77;;;3.53;;
1885;SDS011;943;51.568;6.998;2023-08-17T15:03:13;9.13;;;5.03;;
1885;SDS011;943;51.568;6.998;2023-08-17T15:05:41;5.03;;;2.67;;
1885;SDS011;943;51.568;6.998;2023-08-17T15:08:09;13.30;;;4.77;;
1885;SDS011;943;51.568;6.998;2023-08-17T15:10:37;7.60;;;3.60;;
1885;SDS011;943;51.568;6.998;2023-08-17T15:13:05;7.63;;;3.73;;
1885;SDS011;943;51.568;6.998;2023-08-17T15:15:36;4.87;;;3.33;;
1885;SDS011;943;51.568;6.998;2023-08-17T15:18:05;9.23;;;5.60;;
1885;SDS011;943;51.568;6.998;2023-08-17T15:20:33;5.50;;;4.10;;
1885;SDS011;943;51.568;6.998;2023-08-17T15:23:01;6.40;;;3.87;;
1885;SDS011;943;51.568;6.998;2023-08-17T15:25:30;6.70;;;3.23;;
1885;SDS011;943;51.568;6.998;2023-08-17T15:27:58;9.10;;;4.80;;
1885;SDS011;943;51.568;6.998;2023-08-17T15:30:25;14.90;;;3.73;;
1885;SDS011;943;51.568;6.998;2023-08-17T15:32:54;6.00;;;3.93;;
1885;SDS011;943;51.568;6.998;2023-08-17T15:35:22;6.90;;;3.50;;
1885;SDS011;943;51.568;6.998;2023-08-17T15:37:50;9.93;;;4.60;;
1885;SDS011;943;51.568;6.998;2023-08-17T15:40:19;6.70;;;4.80;;
1885;SDS011;943;51.568;6.998;2023-08-17T15:42:47;7.00;;;4.60;;
1885;SDS011;943;51.568;6.998;2023-08-17T15:45:15;7.47;;;3.77;;
1885;SDS011;943;51.568;6.998;2023-08-17T15:47:44;4.87;;;3.17;;
1885;SDS011;943;51.568;6.998;2023-08-17T15:50:12;8.63;;;4.73;;
1885;SDS011;943;51.568;6.998;2023-08-17T15:52:41;6.00;;;4.03;;
1885;SDS011;943;51.568;6.998;2023-08-17T15:55:10;6.10;;;3.43;;
1885;SDS011;943;51.568;6.998;2023-08-17T15:57:37;6.10;;;3.90;;